createdAt,value
2018-08-31T00:00:15.438Z,17.18
2018-08-31T00:02:47.305Z,17.17
2018-08-31T00:05:38.186Z,16.91
2018-08-31T00:09:17.829Z,17.01
2018-08-31T00:12:25.637Z,16.13
2018-08-31T00:14:54.777Z,15.72
2018-08-31T00:17:23.753Z,16.57
2018-08-31T00:19:52.764Z,16.82
2018-08-31T00:22:21.726Z,16.70
2018-08-31T00:25:01.449Z,16.89
2018-08-31T00:27:41.357Z,16.98
2018-08-31T00:31:22.058Z,16.87
2018-08-31T00:34:03.723Z,16.52
2018-08-31T00:36:43.733Z,15.64
2018-08-31T00:40:27.950Z,15.86
2018-08-31T00:43:18.710Z,15.68
2018-08-31T00:45:47.745Z,16.36
2018-08-31T00:48:16.669Z,16.45
2018-08-31T00:50:45.697Z,16.47
2018-08-31T00:53:14.811Z,16.21
2018-08-31T00:55:43.809Z,16.30
2018-08-31T00:58:12.865Z,16.20
2018-08-31T01:00:42.192Z,16.18
2018-08-31T01:03:11.142Z,16.51
2018-08-31T01:05:40.186Z,16.23
2018-08-31T01:08:09.251Z,16.25
2018-08-31T01:10:38.245Z,16.21
2018-08-31T01:13:07.238Z,16.44
2018-08-31T01:15:36.256Z,16.11
2018-08-31T01:18:05.284Z,16.47
2018-08-31T01:20:34.306Z,16.26
2018-08-31T01:23:03.302Z,16.29
2018-08-31T01:25:33.758Z,15.65
2018-08-31T01:28:02.972Z,15.81
2018-08-31T01:30:31.969Z,16.46
2018-08-31T01:33:00.942Z,16.25
2018-08-31T01:35:29.966Z,15.89
2018-08-31T01:37:58.998Z,16.19
2018-08-31T01:40:28.053Z,16.58
2018-08-31T01:42:57.068Z,16.78
2018-08-31T01:45:26.139Z,16.65
2018-08-31T01:47:55.129Z,16.58
2018-08-31T01:50:24.165Z,16.40
2018-08-31T01:52:53.150Z,16.39
2018-08-31T01:55:27.313Z,16.26
2018-08-31T01:57:56.308Z,16.27
2018-08-31T02:00:25.484Z,16.56
2018-08-31T02:02:54.499Z,16.72
2018-08-31T02:05:23.540Z,16.22
2018-08-31T02:07:52.575Z,15.98
2018-08-31T02:10:21.540Z,15.52
2018-08-31T02:12:50.657Z,15.67
2018-08-31T02:15:19.661Z,16.20
2018-08-31T02:17:48.762Z,16.10
2018-08-31T02:20:17.717Z,16.24
2018-08-31T02:22:46.824Z,15.56
2018-08-31T02:25:15.799Z,15.85
2018-08-31T02:27:44.892Z,15.96
2018-08-31T02:30:13.966Z,15.85
2018-08-31T02:32:42.994Z,15.53
2018-08-31T02:35:11.924Z,15.91
2018-08-31T02:37:40.913Z,16.02
2018-08-31T02:40:10.186Z,15.97
2018-08-31T02:42:39.185Z,15.60
2018-08-31T02:45:08.172Z,15.71
2018-08-31T02:47:37.320Z,15.25
2018-08-31T02:50:06.323Z,15.71
2018-08-31T02:52:35.393Z,15.58
2018-08-31T02:55:04.402Z,15.92
2018-08-31T02:57:33.438Z,15.70
2018-08-31T03:00:02.431Z,15.90
2018-08-31T03:02:31.529Z,15.84
2018-08-31T03:05:00.530Z,15.10
2018-08-31T03:07:29.517Z,15.72
2018-08-31T03:09:58.934Z,15.42
2018-08-31T03:12:27.946Z,15.74
2018-08-31T03:14:56.932Z,16.02
2018-08-31T03:17:25.945Z,16.01
2018-08-31T03:19:54.945Z,16.02
2018-08-31T03:22:23.983Z,15.79
2018-08-31T03:24:53.017Z,15.69
2018-08-31T03:27:22.026Z,15.82
2018-08-31T03:29:50.994Z,15.75
2018-08-31T03:32:19.979Z,15.67
2018-08-31T03:34:48.965Z,15.96
2018-08-31T03:37:17.954Z,15.75
2018-08-31T03:39:46.983Z,14.65
2018-08-31T03:42:16.034Z,14.67
2018-08-31T03:44:45.002Z,14.90
2018-08-31T03:47:14.083Z,14.68
2018-08-31T03:49:43.160Z,15.25
2018-08-31T03:52:12.138Z,15.42
2018-08-31T03:54:41.130Z,15.62
2018-08-31T03:57:10.677Z,15.65
2018-08-31T03:59:39.846Z,15.72
2018-08-31T04:02:08.942Z,15.67
2018-08-31T04:04:37.936Z,15.62
2018-08-31T04:07:06.920Z,15.07
2018-08-31T04:09:35.937Z,15.40
2018-08-31T04:12:04.947Z,15.50
2018-08-31T04:14:33.978Z,15.35
2018-08-31T04:17:03.135Z,15.31
2018-08-31T04:19:32.087Z,15.31
2018-08-31T04:22:01.238Z,15.12
2018-08-31T04:24:30.689Z,15.39
2018-08-31T04:26:59.709Z,15.34
2018-08-31T04:29:28.637Z,15.62
2018-08-31T04:31:57.632Z,15.56
2018-08-31T04:34:26.770Z,15.37
2018-08-31T04:36:55.931Z,15.33
2018-08-31T04:39:24.930Z,15.28
2018-08-31T04:41:53.912Z,15.26
2018-08-31T04:44:22.922Z,15.39
2018-08-31T04:46:52.142Z,15.41
2018-08-31T04:49:21.153Z,15.34
2018-08-31T04:51:50.243Z,15.52
2018-08-31T04:54:19.323Z,15.42
2018-08-31T04:56:48.373Z,15.28
2018-08-31T04:59:17.334Z,15.44
2018-08-31T05:01:46.282Z,15.45
2018-08-31T05:04:15.360Z,15.45
2018-08-31T05:06:44.338Z,15.45
2018-08-31T05:09:13.696Z,15.66
2018-08-31T05:11:43.074Z,15.47
2018-08-31T05:14:12.340Z,15.39
2018-08-31T05:16:41.631Z,15.50
2018-08-31T05:19:10.992Z,15.66
2018-08-31T05:21:40.308Z,15.53
2018-08-31T05:24:09.815Z,15.48
2018-08-31T05:26:38.994Z,15.72
2018-08-31T05:29:08.400Z,15.73
2018-08-31T05:31:37.726Z,15.86
2018-08-31T05:34:07.108Z,15.88
2018-08-31T05:36:36.394Z,15.73
2018-08-31T05:39:08.365Z,16.06
2018-08-31T05:41:37.645Z,16.11
2018-08-31T05:44:06.960Z,15.89
2018-08-31T05:46:36.259Z,15.99
2018-08-31T05:49:05.575Z,15.92
2018-08-31T05:51:34.727Z,16.18
2018-08-31T05:54:04.038Z,16.10
2018-08-31T05:56:33.315Z,16.07
2018-08-31T05:59:02.639Z,16.13
2018-08-31T06:01:32.885Z,15.93
2018-08-31T06:04:02.335Z,16.29
2018-08-31T06:06:31.490Z,16.24
2018-08-31T06:09:00.784Z,16.25
2018-08-31T06:11:29.906Z,16.45
2018-08-31T06:13:59.230Z,16.59
2018-08-31T06:16:28.384Z,16.51
2018-08-31T06:18:57.594Z,16.41
2018-08-31T06:21:26.829Z,16.21
2018-08-31T06:23:56.122Z,16.02
2018-08-31T06:26:25.330Z,16.07
2018-08-31T06:28:55.363Z,15.94
2018-08-31T06:31:25.253Z,15.82
2018-08-31T06:33:55.304Z,16.26
2018-08-31T06:36:25.174Z,16.28
2018-08-31T06:38:55.490Z,16.33
2018-08-31T06:41:25.362Z,16.35
2018-08-31T06:43:55.423Z,16.30
2018-08-31T06:46:24.692Z,16.20
2018-08-31T06:48:53.955Z,16.14
2018-08-31T06:51:23.261Z,16.29
2018-08-31T06:53:52.486Z,16.32
2018-08-31T06:56:22.368Z,16.51
2018-08-31T06:58:51.909Z,16.39
2018-08-31T07:01:21.805Z,16.45
2018-08-31T07:03:51.702Z,16.12
2018-08-31T07:06:21.311Z,16.54
2018-08-31T07:08:50.854Z,16.94
2018-08-31T07:11:20.666Z,16.80
2018-08-31T07:13:50.359Z,16.92
2018-08-31T07:16:20.190Z,16.82
2018-08-31T07:18:50.140Z,17.16
2018-08-31T07:21:19.633Z,17.53
2018-08-31T07:23:49.902Z,17.43
2018-08-31T07:26:26.895Z,17.84
2018-08-31T07:28:56.946Z,18.26
2018-08-31T07:31:26.920Z,17.95
2018-08-31T07:33:56.953Z,18.36
2018-08-31T07:36:27.127Z,18.49
2018-08-31T07:38:56.845Z,19.10
2018-08-31T07:41:26.351Z,18.60
2018-08-31T07:43:56.148Z,18.79
2018-08-31T07:46:25.646Z,18.73
2018-08-31T07:48:54.884Z,19.18
2018-08-31T07:51:24.190Z,18.96
2018-08-31T07:53:53.501Z,19.41
2018-08-31T07:56:22.899Z,19.27
2018-08-31T07:58:52.692Z,19.48
2018-08-31T08:01:22.492Z,18.87
2018-08-31T08:03:56.069Z,19.41
2018-08-31T08:06:26.260Z,19.22
2018-08-31T08:08:55.557Z,19.33
2018-08-31T08:11:24.739Z,20.28
2018-08-31T08:13:54.067Z,19.94
2018-08-31T08:16:23.774Z,19.89
2018-08-31T08:18:53.774Z,21.06
2018-08-31T08:21:23.924Z,21.76
2018-08-31T08:23:53.943Z,22.07
2018-08-31T08:26:23.895Z,21.27
2018-08-31T08:28:53.968Z,21.08
2018-08-31T08:31:23.906Z,20.30
2018-08-31T08:33:53.832Z,20.93
2018-08-31T08:36:23.965Z,20.71
2018-08-31T08:38:53.369Z,21.53
2018-08-31T08:41:22.566Z,22.13
2018-08-31T08:43:52.013Z,22.22
2018-08-31T08:46:21.203Z,21.84
2018-08-31T08:48:51.221Z,22.61
2018-08-31T08:51:21.153Z,21.97
2018-08-31T08:53:51.136Z,21.77
2018-08-31T08:56:21.129Z,21.82
2018-08-31T08:58:51.233Z,22.15
2018-08-31T09:01:21.157Z,22.70
2018-08-31T09:03:50.973Z,22.47
2018-08-31T09:06:20.840Z,22.91
2018-08-31T09:08:50.177Z,22.81
2018-08-31T09:11:19.393Z,22.77
2018-08-31T09:13:48.573Z,22.21
2018-08-31T09:16:17.860Z,22.26
2018-08-31T09:18:47.106Z,22.43
2018-08-31T09:21:16.360Z,22.52
2018-08-31T09:23:45.713Z,22.13
2018-08-31T09:26:15.303Z,21.71
2018-08-31T09:28:44.606Z,22.01
2018-08-31T09:31:18.363Z,21.84
2018-08-31T09:33:47.610Z,21.54
2018-08-31T09:36:16.810Z,21.93
2018-08-31T09:38:46.285Z,21.58
2018-08-31T09:41:15.594Z,21.55
2018-08-31T09:43:44.871Z,22.21
2018-08-31T09:46:14.166Z,22.03
2018-08-31T09:48:43.466Z,22.17
2018-08-31T09:51:12.645Z,21.86
2018-08-31T09:53:41.847Z,21.78
2018-08-31T09:56:11.125Z,21.95
2018-08-31T09:58:40.476Z,21.80
2018-08-31T10:01:14.739Z,22.03
2018-08-31T10:03:44.093Z,21.83
2018-08-31T10:06:13.365Z,22.08
2018-08-31T10:08:42.802Z,21.82
2018-08-31T10:11:12.007Z,21.92
2018-08-31T10:13:41.357Z,22.04
2018-08-31T10:16:10.703Z,22.17
2018-08-31T10:18:40.052Z,21.61
2018-08-31T10:21:09.762Z,22.16
2018-08-31T10:23:39.070Z,21.59
2018-08-31T10:26:08.818Z,21.63
2018-08-31T10:28:38.327Z,21.50
2018-08-31T10:31:07.784Z,21.04
2018-08-31T10:33:37.058Z,21.35
2018-08-31T10:36:06.721Z,21.21
2018-08-31T10:38:36.019Z,21.29
2018-08-31T10:41:06.276Z,21.33
2018-08-31T10:43:36.299Z,21.14
2018-08-31T10:46:06.117Z,21.47
2018-08-31T10:48:35.860Z,21.52
2018-08-31T10:51:05.809Z,22.03
2018-08-31T10:53:35.887Z,21.94
2018-08-31T10:56:05.941Z,22.10
2018-08-31T10:58:35.950Z,21.93
2018-08-31T11:01:05.231Z,22.04
2018-08-31T11:03:34.484Z,21.91
2018-08-31T11:06:03.868Z,22.03
2018-08-31T11:08:33.125Z,22.31
2018-08-31T11:11:02.421Z,22.46
2018-08-31T11:13:34.394Z,22.18
2018-08-31T11:16:04.438Z,22.15
2018-08-31T11:18:34.428Z,21.38
2018-08-31T11:21:04.550Z,21.48
2018-08-31T11:23:34.524Z,21.57
2018-08-31T11:26:04.488Z,22.07
2018-08-31T11:28:34.511Z,22.50
2018-08-31T11:31:03.741Z,22.32
2018-08-31T11:33:32.956Z,21.80
2018-08-31T11:36:02.161Z,22.25
2018-08-31T11:38:31.425Z,21.52
2018-08-31T11:41:01.384Z,21.39
2018-08-31T11:43:31.725Z,21.36
2018-08-31T11:46:01.669Z,22.21
2018-08-31T11:48:31.689Z,22.50
2018-08-31T11:51:01.954Z,22.29
2018-08-31T11:53:31.911Z,22.93
2018-08-31T11:56:02.199Z,22.81
2018-08-31T11:58:32.167Z,22.91
2018-08-31T12:01:01.535Z,23.02
2018-08-31T12:03:30.777Z,23.71
2018-08-31T12:06:00.056Z,24.44
2018-08-31T12:08:29.390Z,25.17
2018-08-31T12:10:59.295Z,24.25
2018-08-31T12:13:29.301Z,23.33
2018-08-31T12:15:59.298Z,23.13
2018-08-31T12:18:29.178Z,23.08
2018-08-31T12:20:59.235Z,22.78
2018-08-31T12:23:29.101Z,23.17
2018-08-31T12:25:59.269Z,22.92
2018-08-31T12:28:28.473Z,23.19
2018-08-31T12:30:57.783Z,23.45
2018-08-31T12:33:27.114Z,23.38
2018-08-31T12:35:56.370Z,23.56
2018-08-31T12:38:26.309Z,23.17
2018-08-31T12:40:56.280Z,23.27
2018-08-31T12:43:26.254Z,23.55
2018-08-31T12:45:56.190Z,22.82
2018-08-31T12:48:26.201Z,22.46
2018-08-31T12:50:56.072Z,22.71
2018-08-31T12:53:25.999Z,23.09
2018-08-31T12:55:56.082Z,23.71
2018-08-31T12:58:25.494Z,25.05
2018-08-31T13:00:54.752Z,23.27
2018-08-31T13:03:24.090Z,23.74
2018-08-31T13:05:53.378Z,23.79
2018-08-31T13:08:23.408Z,24.09
2018-08-31T13:10:53.434Z,23.21
2018-08-31T13:13:23.376Z,22.79
2018-08-31T13:15:53.427Z,22.43
2018-08-31T13:18:23.364Z,22.19
2018-08-31T13:20:54.145Z,22.70
2018-08-31T13:23:24.369Z,23.30
2018-08-31T13:25:53.666Z,23.68
2018-08-31T13:28:22.915Z,23.23
2018-08-31T13:30:52.263Z,23.02
2018-08-31T13:33:21.568Z,22.91
2018-08-31T13:35:51.025Z,23.44
2018-08-31T13:38:20.993Z,23.37
2018-08-31T13:40:51.091Z,23.48
2018-08-31T13:43:21.050Z,23.28
2018-08-31T13:45:50.956Z,23.73
2018-08-31T13:48:20.944Z,23.65
2018-08-31T13:50:50.855Z,23.65
2018-08-31T13:53:21.291Z,24.08
2018-08-31T13:55:50.684Z,24.19
2018-08-31T13:58:20.309Z,24.07
2018-08-31T14:00:49.748Z,24.23
2018-08-31T14:03:19.157Z,24.21
2018-08-31T14:05:49.211Z,24.01
2018-08-31T14:08:19.535Z,24.58
2018-08-31T14:10:49.647Z,24.44
2018-08-31T14:13:19.911Z,24.75
2018-08-31T14:15:50.146Z,23.31
2018-08-31T14:18:20.248Z,23.80
2018-08-31T14:20:50.633Z,25.05
2018-08-31T14:23:20.945Z,25.52
2018-08-31T14:25:50.440Z,25.53
2018-08-31T14:28:19.793Z,25.82
2018-08-31T14:30:49.724Z,25.87
2018-08-31T14:33:19.976Z,25.48
2018-08-31T14:35:49.507Z,25.51
2018-08-31T14:38:19.710Z,26.73
2018-08-31T14:40:49.809Z,25.38
2018-08-31T14:43:20.170Z,25.63
2018-08-31T14:45:50.352Z,23.64
2018-08-31T14:48:21.462Z,23.07
2018-08-31T14:50:50.723Z,23.88
2018-08-31T14:53:20.213Z,23.86
2018-08-31T14:55:49.667Z,23.76
2018-08-31T14:58:19.339Z,24.54
2018-08-31T15:00:48.653Z,24.57
2018-08-31T15:03:18.364Z,24.88
2018-08-31T15:05:47.902Z,24.02
2018-08-31T15:08:17.356Z,24.32
2018-08-31T15:10:47.314Z,24.01
2018-08-31T15:13:16.818Z,23.61
2018-08-31T15:15:46.435Z,23.24
2018-08-31T15:18:16.062Z,22.92
2018-08-31T15:20:45.499Z,23.05
2018-08-31T15:23:15.641Z,23.34
2018-08-31T15:25:46.097Z,23.37
2018-08-31T15:28:16.591Z,23.90
2018-08-31T15:30:46.642Z,24.32
2018-08-31T15:33:16.632Z,24.46
2018-08-31T15:35:46.302Z,24.27
2018-08-31T15:38:16.595Z,23.99
2018-08-31T15:40:46.528Z,23.86
2018-08-31T15:43:16.003Z,23.43
2018-08-31T15:45:45.463Z,24.03
2018-08-31T15:48:14.861Z,24.03
2018-08-31T15:50:44.887Z,24.14
2018-08-31T15:53:14.380Z,23.86
2018-08-31T15:55:43.957Z,23.66
2018-08-31T15:58:13.612Z,23.49
2018-08-31T16:00:43.173Z,23.68
2018-08-31T16:03:12.953Z,23.58
2018-08-31T16:05:42.504Z,23.61
2018-08-31T16:08:12.022Z,23.63
2018-08-31T16:10:41.383Z,23.58
2018-08-31T16:13:10.726Z,23.44
2018-08-31T16:15:40.734Z,23.45
2018-08-31T16:18:10.823Z,23.14
2018-08-31T16:20:40.325Z,23.14
2018-08-31T16:23:10.729Z,23.08
2018-08-31T16:25:40.173Z,23.38
2018-08-31T16:28:09.618Z,23.15
2018-08-31T16:30:39.096Z,23.32
2018-08-31T16:33:08.539Z,22.98
2018-08-31T16:35:37.886Z,22.95
2018-08-31T16:38:07.156Z,22.96
2018-08-31T16:40:36.560Z,23.33
2018-08-31T16:43:06.199Z,23.08
2018-08-31T16:45:35.547Z,23.19
2018-08-31T16:48:05.493Z,22.90
2018-08-31T16:50:35.014Z,23.15
2018-08-31T16:53:04.467Z,23.10
2018-08-31T16:55:33.870Z,22.93
2018-08-31T16:58:03.308Z,23.12
2018-08-31T17:00:32.729Z,23.07
2018-08-31T17:03:02.084Z,22.72
2018-08-31T17:05:31.543Z,22.65
2018-08-31T17:08:01.151Z,22.75
2018-08-31T17:10:30.561Z,22.55
2018-08-31T17:13:00.103Z,22.62
2018-08-31T17:15:29.575Z,22.73
2018-08-31T17:17:59.087Z,22.95
2018-08-31T17:20:28.611Z,22.77
2018-08-31T17:22:58.098Z,22.59
2018-08-31T17:25:36.732Z,22.68
2018-08-31T17:28:10.794Z,22.66
2018-08-31T17:30:40.127Z,22.38
2018-08-31T17:33:14.131Z,22.59
2018-08-31T17:35:48.202Z,22.60
2018-08-31T17:38:17.502Z,22.66
2018-08-31T17:40:46.734Z,22.55
2018-08-31T17:43:17.055Z,22.56
2018-08-31T17:45:46.518Z,22.25
2018-08-31T17:48:15.738Z,22.25
2018-08-31T17:50:45.075Z,22.03
2018-08-31T17:53:14.631Z,21.84
2018-08-31T17:55:43.740Z,22.07
2018-08-31T17:58:13.170Z,22.01
2018-08-31T18:00:42.463Z,21.75
2018-08-31T18:03:11.410Z,21.71
2018-08-31T18:05:40.330Z,21.41
2018-08-31T18:08:09.274Z,21.13
2018-08-31T18:10:38.230Z,21.31
2018-08-31T18:13:07.149Z,20.97
2018-08-31T18:15:36.167Z,20.71
2018-08-31T18:18:05.129Z,20.93
2018-08-31T18:20:34.113Z,20.89
2018-08-31T18:23:03.234Z,20.79
2018-08-31T18:25:32.407Z,20.45
2018-08-31T18:28:01.434Z,20.64
2018-08-31T18:30:30.602Z,20.58
2018-08-31T18:32:59.725Z,20.79
2018-08-31T18:35:29.111Z,20.53
2018-08-31T18:37:58.403Z,20.58
2018-08-31T18:40:27.910Z,20.71
2018-08-31T18:42:59.110Z,20.63
2018-08-31T18:45:28.640Z,20.40
2018-08-31T18:47:58.067Z,20.55
2018-08-31T18:50:27.482Z,20.34
2018-08-31T18:52:56.794Z,20.11
2018-08-31T18:55:26.316Z,19.99
2018-08-31T18:57:55.764Z,20.02
2018-08-31T19:00:24.922Z,20.03
2018-08-31T19:02:54.129Z,20.18
2018-08-31T19:05:23.253Z,19.94
2018-08-31T19:07:52.470Z,19.88
2018-08-31T19:10:21.641Z,19.90
2018-08-31T19:12:50.856Z,19.99
2018-08-31T19:15:20.150Z,19.08
2018-08-31T19:17:49.286Z,18.59
2018-08-31T19:20:18.579Z,18.87
2018-08-31T19:22:47.772Z,18.79
2018-08-31T19:25:17.236Z,19.17
2018-08-31T19:27:47.016Z,19.87
2018-08-31T19:30:16.291Z,19.81
2018-08-31T19:32:45.742Z,19.12
2018-08-31T19:35:14.946Z,19.55
2018-08-31T19:37:44.340Z,18.95
2018-08-31T19:40:13.741Z,18.66
2018-08-31T19:42:42.949Z,19.10
2018-08-31T19:45:12.161Z,19.09
2018-08-31T19:47:41.446Z,19.23
2018-08-31T19:50:10.785Z,19.38
2018-08-31T19:52:40.108Z,19.55
2018-08-31T19:55:09.349Z,19.58
2018-08-31T19:57:38.790Z,19.64
2018-08-31T20:00:08.454Z,19.68
2018-08-31T20:02:37.921Z,19.51
2018-08-31T20:05:07.390Z,19.46
2018-08-31T20:07:36.764Z,19.50
2018-08-31T20:10:06.249Z,19.44
2018-08-31T20:12:35.849Z,19.30
2018-08-31T20:15:05.072Z,19.36
2018-08-31T20:17:34.459Z,18.84
2018-08-31T20:20:04.293Z,19.30
2018-08-31T20:22:33.704Z,19.25
2018-08-31T20:25:03.234Z,19.28
2018-08-31T20:27:32.462Z,18.98
2018-08-31T20:30:01.910Z,19.15
2018-08-31T20:32:31.307Z,19.36
2018-08-31T20:35:00.678Z,19.16
2018-08-31T20:37:29.912Z,19.23
2018-08-31T20:39:59.344Z,19.03
2018-08-31T20:42:28.790Z,18.97
2018-08-31T20:44:58.154Z,19.08
2018-08-31T20:47:27.495Z,19.11
2018-08-31T20:49:56.830Z,19.12
2018-08-31T20:52:26.207Z,18.94
2018-08-31T20:54:55.774Z,18.85
2018-08-31T20:57:25.132Z,18.89
2018-08-31T20:59:54.873Z,18.58
2018-08-31T21:02:24.633Z,18.68
2018-08-31T21:04:53.952Z,18.62
2018-08-31T21:07:23.318Z,18.80
2018-08-31T21:09:52.922Z,18.79
2018-08-31T21:12:22.269Z,18.49
2018-08-31T21:14:51.866Z,18.33
2018-08-31T21:17:23.037Z,18.09
2018-08-31T21:19:52.383Z,18.21
2018-08-31T21:22:21.659Z,18.42
2018-08-31T21:24:51.023Z,18.41
2018-08-31T21:27:20.373Z,18.33
2018-08-31T21:29:49.625Z,18.39
2018-08-31T21:32:19.243Z,18.33
2018-08-31T21:34:48.428Z,18.31
2018-08-31T21:37:17.853Z,18.33
2018-08-31T21:39:47.045Z,18.41
2018-08-31T21:42:16.353Z,18.07
2018-08-31T21:44:45.638Z,18.05
2018-08-31T21:47:14.932Z,18.06
2018-08-31T21:49:44.214Z,18.02
2018-08-31T21:52:13.543Z,18.18
2018-08-31T21:54:42.886Z,18.26
2018-08-31T21:57:12.264Z,18.24
2018-08-31T21:59:41.417Z,18.03
2018-08-31T22:02:10.842Z,18.13
2018-08-31T22:04:40.113Z,18.03
2018-08-31T22:07:09.445Z,18.04
2018-08-31T22:09:39.044Z,17.94
2018-08-31T22:12:08.450Z,17.90
2018-08-31T22:14:37.722Z,17.62
2018-08-31T22:17:07.077Z,17.76
2018-08-31T22:19:36.368Z,17.81
2018-08-31T22:22:05.662Z,17.82
2018-08-31T22:24:34.930Z,17.72
2018-08-31T22:27:04.334Z,17.60
2018-08-31T22:29:33.965Z,17.30
2018-08-31T22:32:03.373Z,17.36
2018-08-31T22:34:32.844Z,17.15
2018-08-31T22:37:02.209Z,17.45
2018-08-31T22:39:31.475Z,17.31
2018-08-31T22:42:00.758Z,17.19
2018-08-31T22:44:32.863Z,16.94
2018-08-31T22:47:02.153Z,17.06
2018-08-31T22:49:31.454Z,17.10
2018-08-31T22:52:00.743Z,17.11
2018-08-31T22:54:30.033Z,16.97
2018-08-31T22:56:59.353Z,16.74
2018-08-31T22:59:28.742Z,16.82
2018-08-31T23:01:58.072Z,17.03
2018-08-31T23:04:27.446Z,16.98
2018-08-31T23:06:56.751Z,17.10
2018-08-31T23:09:26.237Z,16.88
2018-08-31T23:11:55.586Z,17.03
2018-08-31T23:14:24.913Z,17.04
2018-08-31T23:16:54.314Z,16.73
2018-08-31T23:19:23.504Z,16.93
2018-08-31T23:21:52.760Z,17.20
2018-08-31T23:24:22.045Z,17.03
2018-08-31T23:26:51.394Z,16.50
2018-08-31T23:29:20.757Z,16.84
2018-08-31T23:31:50.145Z,16.69
2018-08-31T23:34:19.418Z,16.77
2018-08-31T23:36:48.880Z,16.83
2018-08-31T23:39:18.076Z,16.64
2018-08-31T23:41:47.521Z,16.77
2018-08-31T23:44:17.388Z,16.67
2018-08-31T23:46:47.519Z,16.64
2018-08-31T23:49:16.762Z,16.58
2018-08-31T23:51:46.082Z,16.55
2018-08-31T23:54:15.521Z,16.23
2018-08-31T23:56:44.817Z,16.52
2018-08-31T23:59:14.149Z,16.21
